This is the latest recevied weather packets stored in our database for station/object VA7NEZ. If no packets are shown the sender has not sent any weather packets the latest 10 day(s).
| Time | Temp. | Humidity | Pressure | Rain* | Wind** | Luminosity | Snow |
|---|---|---|---|---|---|---|---|
| 1777692343 | 19.44° C | 43% | 1015.1 hPa | 0 mm | - | - | - |
| 1777691756 | 19.44° C | 42% | 1015 hPa | 0 mm | - | - | - |
| 1777690741 | 20.56° C | 40% | 1014.9 hPa | 0 mm | - | - | - |
| 1777690231 | 0° C | 100% | 1014.7 hPa | 0 mm | - | - | - |
| 1777689068 | 22.78° C | 30% | 1014.7 hPa | 0 mm | - | - | - |
| 1777672996 | 29.44° C | 23% | 1015.6 hPa | 0 mm | - | - | - |
| 1777672396 | 25.56° C | 30% | 1015.8 hPa | 0 mm | - | - | - |
| 1777670752 | 22.78° C | 32% | 1016.1 hPa | 0 mm | - | - | - |
| 1777669656 | 22.78° C | 31% | 1016.1 hPa | 0 mm | - | - | - |
| 1777669086 | 0° C | 100% | 1016.3 hPa | 0 mm | - | - | - |
| 1777667451 | 21.67° C | 31% | 1016.4 hPa | 0 mm | - | - | - |
| 1777666856 | 21.11° C | 33% | 1016.6 hPa | 0 mm | - | - | - |
| 1777665726 | 21.11° C | 33% | 1016.7 hPa | 0 mm | - | - | - |
| 1777665156 | 20.56° C | 34% | 1016.8 hPa | 0 mm | - | - | - |
| 1777662406 | 19.44° C | 37% | 1017.1 hPa | 0 mm | - | - | - |
| 1777661881 | 19.44° C | 36% | 1017.3 hPa | 0 mm | - | - | - |
| 1777660755 | 18.89° C | 40% | 1017.4 hPa | 0 mm | - | - | - |
| 1777659711 | 17.78° C | 40% | 1017.5 hPa | 0 mm | - | - | - |
| 1777659111 | 17.78° C | 40% | 1017.6 hPa | 0 mm | - | - | - |
| 1777658541 | 0° C | 100% | 1017.6 hPa | 0 mm | - | - | - |
| 1777656956 | 16.67° C | 47% | 1017.9 hPa | 0 mm | - | - | - |
| 1777656416 | 16.11° C | 50% | 1018 hPa | 0 mm | - | - | - |
| 1777655901 | 16.11° C | 41% | 1017.9 hPa | 0 mm | - | - | - |
| 1777655337 | 15.56° C | 44% | 1018 hPa | 0 mm | - | - | - |
| 1777654812 | 15° C | 47% | 1018 hPa | 0 mm | - | - | - |
* Rain latest hour (hover to see other rain measurements)
** Current wind speed in m/s (hover to see current wind gust speed)